Time;durP1;ratioP1;P1;durP2;ratioP2;P2;SDS_P1;SDS_P2;PMS_P1;PMS_P2;Temp;Humidity;BMP_temperature;BMP_pressure;BME280_temperature;BME280_humidity;BME280_pressure;Samples;Min_cycle;Max_cycle;Signal;HPM_P1;HPM_P2
2021/04/23 00:00:48;;;;;;;3.85;3.28;;;12.80;96.70;;;;;;4953169;28;20048;-76
2021/04/23 00:03:30;;;;;;;6.45;3.60;;;12.70;96.70;;;;;;4968371;28;20067;-77
2021/04/23 00:06:05;;;;;;;6.32;3.30;;;12.60;96.70;;;;;;4964137;28;20046;-76
2021/04/23 00:08:34;;;;;;;3.55;3.05;;;12.50;96.70;;;;;;4974433;28;20348;-76
2021/04/23 00:11:04;;;;;;;3.53;2.53;;;12.50;96.70;;;;;;4971350;28;20124;-77
2021/04/23 00:13:32;;;;;;;4.38;2.65;;;12.60;96.70;;;;;;4965427;28;20130;-77
2021/04/23 00:16:00;;;;;;;4.60;2.30;;;12.50;96.70;;;;;;4959149;28;20051;-76
2021/04/23 00:18:29;;;;;;;2.42;2.22;;;12.40;96.70;;;;;;4977609;28;20105;-77
2021/04/23 00:20:57;;;;;;;4.88;2.00;;;12.30;96.70;;;;;;4958168;28;20054;-76
2021/04/23 00:23:26;;;;;;;2.60;2.28;;;12.30;96.70;;;;;;4963427;28;20051;-76
2021/04/23 00:25:54;;;;;;;2.97;1.95;;;12.30;96.70;;;;;;4952827;28;20050;-77
2021/04/23 00:28:22;;;;;;;2.67;2.17;;;12.30;96.70;;;;;;4960422;28;20047;-76
2021/04/23 00:30:52;;;;;;;1.92;1.67;;;12.40;96.70;;;;;;4961415;28;20046;-77
2021/04/23 00:33:21;;;;;;;3.13;2.55;;;12.40;96.70;;;;;;4961544;28;20042;-77
2021/04/23 00:35:51;;;;;;;2.10;1.90;;;12.40;96.70;;;;;;4977066;28;20045;-77
2021/04/23 00:38:20;;;;;;;2.97;2.55;;;12.30;96.70;;;;;;4955325;28;20070;-76
2021/04/23 00:41:34;;;;;;;2.63;2.28;;;12.30;96.70;;;;;;4956135;28;20497;-77
2021/04/23 00:44:04;;;;;;;2.72;2.38;;;12.30;96.70;;;;;;4930747;28;20571;-76
2021/04/23 00:46:34;;;;;;;2.50;2.00;;;12.10;96.70;;;;;;4969419;28;20089;-76
2021/04/23 00:49:05;;;;;;;3.75;2.50;;;12.20;96.70;;;;;;4962485;28;20065;-76
2021/04/23 00:51:41;;;;;;;4.00;2.08;;;12.10;96.70;;;;;;4962732;28;20129;-77
2021/04/23 00:54:10;;;;;;;2.58;2.30;;;11.90;96.70;;;;;;4964368;28;20070;-77
2021/04/23 00:56:39;;;;;;;4.63;2.08;;;11.90;96.70;;;;;;4964418;28;20237;-76
2021/04/23 00:59:09;;;;;;;4.97;2.85;;;11.90;96.70;;;;;;4961142;28;20492;-76
2021/04/23 01:01:39;;;;;;;3.58;1.92;;;11.90;96.70;;;;;;4963826;28;20042;-76
2021/04/23 01:04:09;;;;;;;3.03;1.92;;;12.00;96.70;;;;;;4964598;28;20164;-76
2021/04/23 01:06:38;;;;;;;3.10;2.10;;;12.00;96.70;;;;;;4950796;28;20051;-76
2021/04/23 01:09:09;;;;;;;2.40;1.83;;;11.90;96.70;;;;;;4976351;28;20074;-76
2021/04/23 01:11:37;;;;;;;2.95;2.03;;;11.80;96.70;;;;;;4972936;28;20047;-77
2021/04/23 01:14:06;;;;;;;3.42;1.98;;;11.80;96.70;;;;;;4964616;28;20038;-76
2021/04/23 01:16:36;;;;;;;2.85;1.75;;;11.80;96.70;;;;;;4938064;28;20052;-76
2021/04/23 01:19:07;;;;;;;3.15;2.00;;;11.80;96.70;;;;;;4964453;28;20057;-77
2021/04/23 01:21:38;;;;;;;2.95;2.17;;;11.60;96.70;;;;;;4961019;28;20062;-77
2021/04/23 01:24:11;;;;;;;4.05;2.28;;;11.70;96.70;;;;;;4953825;28;20051;-77
2021/04/23 01:26:41;;;;;;;3.33;1.98;;;11.60;96.70;;;;;;4972458;28;20045;-77
2021/04/23 01:29:12;;;;;;;2.85;2.13;;;11.50;96.70;;;;;;4967324;28;20080;-76
2021/04/23 01:31:42;;;;;;;4.00;2.15;;;11.50;96.70;;;;;;4971840;28;20061;-77
2021/04/23 01:34:12;;;;;;;3.05;2.25;;;11.40;96.70;;;;;;4963384;28;20042;-76
2021/04/23 01:36:43;;;;;;;3.58;2.13;;;11.40;96.70;;;;;;4954936;28;20390;-76
2021/04/23 01:39:15;;;;;;;3.55;1.95;;;11.40;96.70;;;;;;4967620;28;20475;-76
2021/04/23 01:41:43;;;;;;;2.28;1.80;;;11.50;96.70;;;;;;4956665;28;20055;-76
2021/04/23 01:44:12;;;;;;;3.28;2.40;;;11.60;96.70;;;;;;4966667;28;20118;-76
2021/04/23 01:46:41;;;;;;;2.53;2.20;;;11.40;96.70;;;;;;4960983;28;20035;-76
2021/04/23 01:52:49;;;;;;;3.13;2.00;;;11.30;96.70;;;;;;4958956;28;20054;-76
2021/04/23 01:55:36;;;;;;;3.50;1.85;;;11.20;96.70;;;;;;4962060;28;20293;-76
2021/04/23 01:58:04;;;;;;;2.95;2.00;;;11.20;96.70;;;;;;4957564;28;20046;-76
2021/04/23 02:00:57;;;;;;;2.90;2.10;;;11.10;96.70;;;;;;4958488;28;20046;-77
2021/04/23 02:03:26;;;;;;;2.70;2.03;;;11.10;96.70;;;;;;4953166;28;20049;-77
2021/04/23 02:05:56;;;;;;;2.67;1.98;;;11.10;96.70;;;;;;4951178;28;20043;-76
2021/04/23 02:08:28;;;;;;;2.20;2.00;;;11.20;96.70;;;;;;4944669;28;20137;-77
2021/04/23 02:11:01;;;;;;;2.92;1.88;;;11.00;96.70;;;;;;4959093;28;20507;-76
2021/04/23 02:13:31;;;;;;;1.98;1.77;;;11.00;96.70;;;;;;4959956;28;20169;-77
2021/04/23 02:16:01;;;;;;;2.13;1.67;;;10.90;96.70;;;;;;4957390;28;20110;-76
2021/04/23 02:18:31;;;;;;;3.13;1.88;;;10.80;96.70;;;;;;4961745;28;20042;-76
2021/04/23 02:21:02;;;;;;;2.88;2.05;;;10.80;96.70;;;;;;4976026;28;20074;-76
2021/04/23 02:23:34;;;;;;;2.47;1.73;;;10.70;96.70;;;;;;4962366;28;20049;-77
2021/04/23 02:26:04;;;;;;;1.85;1.63;;;10.60;96.70;;;;;;4956362;28;20134;-76
2021/04/23 02:28:34;;;;;;;3.25;1.70;;;10.70;96.70;;;;;;4962911;28;20057;-76
2021/04/23 02:31:06;;;;;;;4.40;2.10;;;10.60;96.70;;;;;;4964170;28;20050;-76
2021/04/23 02:33:36;;;;;;;1.85;1.70;;;10.60;96.70;;;;;;4977612;28;20046;-76
2021/04/23 02:36:07;;;;;;;2.10;1.77;;;10.70;96.70;;;;;;4964921;28;20047;-76
2021/04/23 02:38:39;;;;;;;2.17;1.90;;;10.70;96.70;;;;;;4966066;28;20040;-76
2021/04/23 02:41:09;;;;;;;1.90;1.67;;;10.70;96.70;;;;;;4962687;28;20145;-76
2021/04/23 02:43:46;;;;;;;4.13;2.33;;;10.70;96.70;;;;;;4963331;28;20058;-77
2021/04/23 02:46:15;;;;;;;3.60;1.80;;;10.70;96.70;;;;;;4970581;28;20077;-76
2021/04/23 02:48:46;;;;;;;3.42;1.90;;;10.70;96.70;;;;;;4963703;28;20532;-77
2021/04/23 02:51:24;;;;;;;2.80;1.90;;;10.70;96.70;;;;;;4952719;28;20522;-77
2021/04/23 02:53:54;;;;;;;7.32;2.60;;;10.70;96.70;;;;;;4961296;28;20046;-76
2021/04/23 02:56:25;;;;;;;2.67;2.30;;;10.70;96.70;;;;;;4962991;28;20052;-76
2021/04/23 02:58:55;;;;;;;2.53;1.88;;;10.70;96.70;;;;;;4964112;28;20503;-76
2021/04/23 03:01:26;;;;;;;3.03;2.28;;;10.70;96.70;;;;;;4972729;28;20054;-76
2021/04/23 03:03:55;;;;;;;3.47;2.03;;;10.50;96.70;;;;;;4947722;28;20460;-76
2021/04/23 03:06:24;;;;;;;2.80;2.55;;;10.40;96.70;;;;;;4969758;28;20035;-76
2021/04/23 03:08:53;;;;;;;3.08;2.10;;;10.40;96.70;;;;;;4964437;28;20054;-76
2021/04/23 03:11:49;;;;;;;2.85;2.22;;;10.40;96.70;;;;;;4949730;28;20058;-76
2021/04/23 03:14:17;;;;;;;2.88;2.20;;;10.30;96.70;;;;;;4966535;28;20045;-76
2021/04/23 03:16:45;;;;;;;4.88;2.83;;;10.30;96.70;;;;;;4964873;28;20591;-77
2021/04/23 03:19:15;;;;;;;3.28;2.33;;;10.30;96.70;;;;;;4969346;28;20034;-76
2021/04/23 03:21:43;;;;;;;3.58;2.50;;;10.40;96.70;;;;;;4964913;28;20141;-77
2021/04/23 03:24:54;;;;;;;3.03;2.20;;;10.50;96.70;;;;;;4971859;28;20117;-76
2021/04/23 03:27:23;;;;;;;4.95;2.95;;;10.60;96.70;;;;;;4977591;28;20121;-76
2021/04/23 03:29:51;;;;;;;3.20;2.58;;;10.40;96.70;;;;;;4948239;28;20059;-76
2021/04/23 03:32:19;;;;;;;2.83;2.33;;;10.40;96.70;;;;;;4959914;28;20063;-76
2021/04/23 03:34:50;;;;;;;3.17;2.28;;;10.30;96.70;;;;;;4968707;28;20066;-77
2021/04/23 03:37:18;;;;;;;3.35;2.00;;;10.30;96.70;;;;;;4946544;28;20521;-77
2021/04/23 03:39:46;;;;;;;2.47;2.15;;;10.30;96.70;;;;;;4945492;28;20047;-76
2021/04/23 03:42:14;;;;;;;2.92;1.98;;;10.20;96.70;;;;;;4944190;28;20545;-76
2021/04/23 03:44:43;;;;;;;3.33;2.33;;;10.20;96.70;;;;;;4962083;28;20428;-76
2021/04/23 03:47:29;;;;;;;3.80;2.20;;;10.20;96.70;;;;;;4958847;28;20053;-76
2021/04/23 03:49:57;;;;;;;2.73;2.13;;;10.30;96.70;;;;;;4963863;28;20106;-76
2021/04/23 03:52:25;;;;;;;3.30;2.40;;;10.20;96.70;;;;;;4967677;28;20038;-76
2021/04/23 03:54:53;;;;;;;3.97;1.80;;;10.10;96.70;;;;;;4963296;28;20411;-77
2021/04/23 03:57:21;;;;;;;2.75;2.05;;;10.00;96.70;;;;;;4944336;28;20046;-76
2021/04/23 03:59:51;;;;;;;2.50;1.92;;;10.10;96.70;;;;;;4978318;28;20042;-76
2021/04/23 04:02:19;;;;;;;3.75;2.40;;;10.00;96.70;;;;;;4949474;28;20038;-76
2021/04/23 04:04:49;;;;;;;2.97;2.30;;;10.10;96.70;;;;;;4963582;28;20054;-76
2021/04/23 04:07:18;;;;;;;4.25;2.58;;;10.10;96.70;;;;;;4961290;28;20035;-77
2021/04/23 04:09:47;;;;;;;4.13;2.85;;;9.90;96.70;;;;;;4945240;28;20051;-76
2021/04/23 04:12:17;;;;;;;4.60;2.92;;;10.00;96.70;;;;;;4947568;28;20043;-76
2021/04/23 04:14:46;;;;;;;4.47;2.80;;;10.10;96.70;;;;;;4961185;28;20055;-76
2021/04/23 04:17:15;;;;;;;3.45;2.50;;;10.10;96.70;;;;;;4968869;28;20049;-76
2021/04/23 04:19:43;;;;;;;3.25;2.95;;;10.10;96.70;;;;;;4969277;28;20177;-76
2021/04/23 04:22:11;;;;;;;5.32;3.15;;;10.10;96.70;;;;;;4966729;28;20038;-76
2021/04/23 04:24:39;;;;;;;3.63;2.58;;;10.20;96.70;;;;;;4971107;28;20362;-76
2021/04/23 04:27:06;;;;;;;3.90;2.88;;;10.30;96.70;;;;;;4965888;28;20038;-77
2021/04/23 04:29:34;;;;;;;5.85;3.88;;;10.20;96.70;;;;;;4965165;28;20050;-77
2021/04/23 04:32:02;;;;;;;10.15;4.60;;;10.20;96.70;;;;;;4967971;28;20051;-76
2021/04/23 04:34:31;;;;;;;6.30;4.80;;;10.20;96.70;;;;;;4970807;28;20046;-76
2021/04/23 04:36:59;;;;;;;6.95;4.80;;;10.30;96.70;;;;;;4963084;28;20516;-76
2021/04/23 04:39:26;;;;;;;6.60;5.30;;;10.30;96.70;;;;;;4965304;28;20041;-77
2021/04/23 04:41:54;;;;;;;5.78;3.83;;;10.20;96.70;;;;;;4965836;28;20047;-76
2021/04/23 04:44:21;;;;;;;4.03;3.25;;;10.10;96.70;;;;;;4947612;28;20451;-76
2021/04/23 04:46:49;;;;;;;7.65;3.83;;;10.10;96.70;;;;;;4962938;28;20579;-76
2021/04/23 04:49:17;;;;;;;5.53;3.30;;;10.20;96.70;;;;;;4945268;28;20133;-76
2021/04/23 04:51:45;;;;;;;3.95;2.58;;;10.30;96.70;;;;;;4964803;28;20196;-76
2021/04/23 04:54:17;;;;;;;7.03;3.40;;;10.30;96.70;;;;;;4941318;28;20043;-76
2021/04/23 04:56:45;;;;;;;4.97;2.63;;;10.30;96.70;;;;;;4976919;28;20434;-76
2021/04/23 04:59:13;;;;;;;4.90;2.80;;;10.30;96.70;;;;;;4962253;28;20518;-76
2021/04/23 05:01:40;;;;;;;5.15;2.55;;;10.30;96.70;;;;;;4962683;28;20043;-77
2021/04/23 05:04:09;;;;;;;4.55;2.63;;;10.40;96.70;;;;;;4965403;28;20071;-77
2021/04/23 05:06:37;;;;;;;5.90;3.03;;;10.40;96.70;;;;;;4965900;28;20383;-77
2021/04/23 05:09:08;;;;;;;5.20;3.00;;;10.40;96.70;;;;;;4962245;28;20054;-77
2021/04/23 05:11:35;;;;;;;5.28;3.60;;;10.50;96.70;;;;;;4968688;28;20053;-76
2021/04/23 05:14:03;;;;;;;5.57;3.40;;;10.50;96.70;;;;;;4963088;28;20493;-77
2021/04/23 05:16:31;;;;;;;5.88;3.30;;;10.60;96.70;;;;;;4961887;28;20468;-77
2021/04/23 05:18:59;;;;;;;5.15;3.78;;;10.70;96.70;;;;;;4937005;28;20047;-77
2021/04/23 05:21:26;;;;;;;4.18;2.78;;;10.70;96.70;;;;;;4954191;28;20441;-77
2021/04/23 05:23:54;;;;;;;6.22;3.80;;;10.70;96.70;;;;;;4958386;28;20034;-77
2021/04/23 05:26:23;;;;;;;3.65;2.97;;;10.80;96.70;;;;;;4961535;28;20053;-77
2021/04/23 05:28:50;;;;;;;6.07;3.22;;;10.80;96.70;;;;;;4960683;28;20121;-76
2021/04/23 05:31:19;;;;;;;5.82;3.78;;;10.90;96.70;;;;;;4963330;28;20181;-77
2021/04/23 05:33:47;;;;;;;6.82;4.65;;;10.80;96.70;;;;;;4955161;28;20051;-77
2021/04/23 05:36:15;;;;;;;5.82;4.43;;;10.90;96.70;;;;;;4961887;28;20527;-77
2021/04/23 05:38:42;;;;;;;6.25;5.20;;;10.90;96.70;;;;;;4945766;28;20505;-76
2021/04/23 05:41:11;;;;;;;5.47;4.50;;;11.00;96.70;;;;;;4966114;28;20035;-77
2021/04/23 05:43:42;;;;;;;5.45;4.20;;;11.00;96.70;;;;;;4961256;28;20043;-77
2021/04/23 05:46:10;;;;;;;7.38;5.13;;;11.10;96.70;;;;;;4955516;28;20587;-77
2021/04/23 05:48:38;;;;;;;6.43;4.63;;;11.10;96.70;;;;;;4961759;28;20047;-77
2021/04/23 05:51:06;;;;;;;6.63;4.60;;;11.10;96.70;;;;;;4959158;28;20154;-77
2021/04/23 05:53:33;;;;;;;8.50;4.80;;;11.20;96.70;;;;;;4960093;28;20078;-77
2021/04/23 05:56:04;;;;;;;9.38;4.18;;;11.30;96.70;;;;;;4944656;28;20058;-77
2021/04/23 05:58:32;;;;;;;7.20;4.32;;;11.30;96.70;;;;;;4962265;28;20193;-76
2021/04/23 06:01:01;;;;;;;7.70;3.97;;;11.20;96.70;;;;;;4961107;28;20057;-77
2021/04/23 06:03:29;;;;;;;6.38;4.00;;;11.30;96.70;;;;;;4962097;28;20042;-76
2021/04/23 06:05:56;;;;;;;6.85;4.32;;;11.30;96.70;;;;;;4961226;28;20053;-76
2021/04/23 06:08:24;;;;;;;7.00;4.28;;;11.40;96.70;;;;;;4977678;28;20054;-75
2021/04/23 06:10:52;;;;;;;5.60;3.92;;;11.50;96.70;;;;;;4964604;28;20572;-76
2021/04/23 06:13:19;;;;;;;6.68;4.00;;;11.50;96.70;;;;;;4967136;28;20046;-76
2021/04/23 06:15:48;;;;;;;10.30;5.85;;;11.50;96.70;;;;;;4944709;28;20211;-76
2021/04/23 06:18:17;;;;;;;8.98;5.28;;;11.60;96.70;;;;;;4961413;28;20420;-78
2021/04/23 06:20:48;;;;;;;8.18;5.28;;;11.70;96.70;;;;;;4958238;28;20408;-77
2021/04/23 06:23:17;;;;;;;8.55;5.20;;;11.70;96.70;;;;;;4965577;28;20279;-77
2021/04/23 06:25:45;;;;;;;7.93;5.05;;;11.80;96.70;;;;;;4963605;28;20038;-77
2021/04/23 06:28:12;;;;;;;7.07;4.18;;;11.90;96.70;;;;;;4961609;28;20039;-77
2021/04/23 06:30:40;;;;;;;5.60;3.45;;;12.00;96.70;;;;;;4959220;28;20042;-76
2021/04/23 06:33:33;;;;;;;7.57;4.15;;;12.10;96.70;;;;;;4959525;28;20058;-76
2021/04/23 06:36:01;;;;;;;6.78;3.42;;;12.30;96.70;;;;;;4961808;28;20205;-76
2021/04/23 06:38:30;;;;;;;5.38;3.45;;;12.40;96.70;;;;;;4959960;28;20042;-76
2021/04/23 06:40:58;;;;;;;5.07;2.90;;;12.60;96.70;;;;;;4964838;28;20066;-76
2021/04/23 06:43:26;;;;;;;5.75;3.10;;;12.70;96.70;;;;;;4971351;28;20283;-76
2021/04/23 06:45:54;;;;;;;5.28;3.22;;;12.80;96.70;;;;;;4961744;28;20043;-76
2021/04/23 06:48:22;;;;;;;5.55;3.42;;;12.90;96.70;;;;;;4960883;28;20077;-76
2021/04/23 06:50:50;;;;;;;6.78;3.45;;;13.00;96.70;;;;;;4920896;28;20048;-76
2021/04/23 06:53:20;;;;;;;6.78;3.60;;;13.10;96.70;;;;;;4963045;28;20050;-76
2021/04/23 06:55:48;;;;;;;7.20;3.95;;;13.20;96.70;;;;;;4950621;28;20090;-77
2021/04/23 06:58:15;;;;;;;7.70;4.07;;;13.30;96.70;;;;;;4970765;28;20085;-77
2021/04/23 07:00:43;;;;;;;6.40;3.42;;;13.40;96.70;;;;;;4964422;28;20043;-77
2021/04/23 07:03:11;;;;;;;7.55;3.75;;;13.50;96.70;;;;;;4955470;28;20039;-76
2021/04/23 07:05:41;;;;;;;4.05;3.08;;;13.60;96.70;;;;;;4959671;28;20137;-76
2021/04/23 07:08:09;;;;;;;5.53;2.85;;;13.70;96.70;;;;;;4963918;28;20519;-76
2021/04/23 07:10:39;;;;;;;3.63;2.83;;;13.80;96.70;;;;;;4959833;28;20063;-76
2021/04/23 07:13:06;;;;;;;3.30;2.58;;;13.90;96.70;;;;;;4956105;28;20047;-76
2021/04/23 07:15:36;;;;;;;3.83;2.28;;;14.10;96.70;;;;;;4970434;28;20039;-76
2021/04/23 07:18:04;;;;;;;2.85;2.20;;;14.20;96.70;;;;;;4963163;28;20066;-76
2021/04/23 07:20:38;;;;;;;2.33;1.10;;;14.40;96.70;;;;;;4963405;28;20074;-76
2021/04/23 07:23:06;;;;;;;2.30;1.15;;;14.60;95.60;;;;;;4956933;28;20050;-77
2021/04/23 07:25:34;;;;;;;2.55;1.40;;;14.80;94.00;;;;;;4969104;28;20054;-77
2021/04/23 07:28:04;;;;;;;2.88;1.98;;;15.00;93.70;;;;;;4961008;28;20061;-77
2021/04/23 07:30:35;;;;;;;2.13;1.55;;;15.20;93.70;;;;;;4964229;28;20520;-77
2021/04/23 07:33:05;;;;;;;3.22;1.13;;;15.30;93.40;;;;;;4964575;28;20047;-77
2021/04/23 07:35:33;;;;;;;2.13;1.50;;;15.40;92.00;;;;;;4964919;28;20043;-77
2021/04/23 07:38:02;;;;;;;1.58;1.25;;;15.50;91.80;;;;;;4963370;28;20122;-77
2021/04/23 07:40:30;;;;;;;2.45;1.20;;;15.60;91.80;;;;;;4965553;28;20046;-77
2021/04/23 07:43:00;;;;;;;3.72;1.25;;;15.70;91.40;;;;;;4962670;28;20145;-76
2021/04/23 07:45:39;;;;;;;2.65;1.17;;;15.80;90.80;;;;;;4967848;28;20039;-76
2021/04/23 07:48:07;;;;;;;1.17;0.88;;;16.00;90.10;;;;;;4947809;28;20043;-77
2021/04/23 07:50:35;;;;;;;2.03;0.90;;;16.20;87.80;;;;;;4963638;28;20050;-77
2021/04/23 07:53:03;;;;;;;1.45;1.15;;;16.30;87.30;;;;;;4959095;28;20046;-77
2021/04/23 07:55:30;;;;;;;1.27;1.00;;;16.40;86.90;;;;;;4965303;28;20047;-77
2021/04/23 07:57:58;;;;;;;1.65;1.00;;;16.40;86.50;;;;;;4965384;28;20057;-77
2021/04/23 08:00:26;;;;;;;1.33;1.00;;;16.50;86.30;;;;;;4965432;28;20065;-77
2021/04/23 08:02:55;;;;;;;1.20;0.73;;;16.70;86.20;;;;;;4966513;28;20549;-77
2021/04/23 08:05:25;;;;;;;0.88;0.70;;;16.80;85.70;;;;;;4970782;28;20464;-77
2021/04/23 08:08:05;;;;;;;2.25;0.90;;;16.80;85.40;;;;;;4964041;28;20111;-76
2021/04/23 08:10:35;;;;;;;2.53;0.80;;;16.90;84.10;;;;;;4940458;28;20047;-77
2021/04/23 08:13:03;;;;;;;2.03;1.00;;;17.00;82.90;;;;;;4958789;28;21068;-76
2021/04/23 08:15:31;;;;;;;3.40;0.93;;;17.00;83.10;;;;;;4964219;28;20116;-77
2021/04/23 08:18:00;;;;;;;1.25;0.93;;;17.10;83.60;;;;;;4965709;28;20146;-77
2021/04/23 08:20:28;;;;;;;0.95;0.70;;;17.10;82.50;;;;;;4962580;28;20045;-77
2021/04/23 08:22:57;;;;;;;2.63;1.00;;;17.20;83.40;;;;;;4959903;28;20045;-77
2021/04/23 08:25:25;;;;;;;1.58;1.00;;;17.20;82.00;;;;;;4964448;28;20101;-77
2021/04/23 08:27:53;;;;;;;2.90;1.25;;;17.40;82.70;;;;;;4962786;28;20066;-77
2021/04/23 08:30:24;;;;;;;0.93;0.73;;;17.50;82.30;;;;;;4961584;28;20062;-78
2021/04/23 08:32:52;;;;;;;0.88;0.80;;;17.60;82.00;;;;;;4965490;28;20054;-77
2021/04/23 08:35:22;;;;;;;1.70;0.73;;;17.60;81.50;;;;;;4962909;28;20378;-77
2021/04/23 08:37:51;;;;;;;2.20;0.60;;;17.60;81.50;;;;;;4969826;28;20042;-78
2021/04/23 08:40:21;;;;;;;3.47;0.88;;;17.70;82.10;;;;;;4962071;28;20560;-77
2021/04/23 08:42:51;;;;;;;1.58;0.77;;;17.80;81.60;;;;;;4962230;28;20047;-77
2021/04/23 08:45:21;;;;;;;2.13;0.73;;;17.80;81.30;;;;;;4961028;28;20137;-78
2021/04/23 08:47:51;;;;;;;2.05;0.73;;;18.00;80.90;;;;;;4972074;28;20049;-77
2021/04/23 08:50:22;;;;;;;2.17;0.70;;;18.20;80.10;;;;;;4963970;28;20062;-77
2021/04/23 08:52:51;;;;;;;1.17;0.70;;;18.30;80.10;;;;;;4962320;28;20569;-76
2021/04/23 08:55:21;;;;;;;2.33;0.80;;;18.30;79.20;;;;;;4962027;28;20053;-77
2021/04/23 08:58:09;;;;;;;2.28;0.77;;;18.40;79.40;;;;;;4936194;28;20133;-78
2021/04/23 09:00:37;;;;;;;1.27;0.60;;;18.50;78.40;;;;;;4958541;28;20043;-77
2021/04/23 09:03:07;;;;;;;2.25;0.70;;;18.50;78.50;;;;;;4941495;28;20436;-77
2021/04/23 09:05:36;;;;;;;2.10;0.88;;;18.50;79.00;;;;;;4944759;28;20042;-77
2021/04/23 09:08:06;;;;;;;4.90;1.05;;;18.80;78.10;;;;;;4925657;28;20059;-76
2021/04/23 09:10:35;;;;;;;3.13;1.13;;;19.00;78.70;;;;;;4944150;28;20110;-76
2021/04/23 09:13:07;;;;;;;0.75;0.60;;;19.20;78.50;;;;;;4927948;28;20129;-77
2021/04/23 09:15:36;;;;;;;3.60;0.98;;;19.10;77.80;;;;;;4947162;28;20202;-77
2021/04/23 09:18:09;;;;;;;1.13;0.60;;;19.00;77.70;;;;;;4945137;28;20040;-77
2021/04/23 09:20:41;;;;;;;2.30;0.80;;;18.80;78.70;;;;;;4943792;28;20393;-76
2021/04/23 09:23:12;;;;;;;2.25;0.88;;;18.90;78.50;;;;;;4944032;28;20109;-77
2021/04/23 09:25:43;;;;;;;1.25;0.90;;;18.90;78.30;;;;;;4945366;28;20039;-78
2021/04/23 09:28:11;;;;;;;0.98;0.85;;;19.00;78.60;;;;;;4924351;28;20620;-77
2021/04/23 09:30:39;;;;;;;1.98;0.80;;;19.00;78.20;;;;;;4942580;28;20382;-77
2021/04/23 09:33:23;;;;;;;1.52;0.70;;;19.00;77.70;;;;;;4927757;28;20054;-77
2021/04/23 09:35:52;;;;;;;2.00;0.80;;;19.20;77.20;;;;;;4944497;28;20035;-77
2021/04/23 09:38:20;;;;;;;2.03;0.77;;;19.30;76.90;;;;;;4936004;28;20467;-76
2021/04/23 09:40:48;;;;;;;1.70;0.80;;;19.40;77.30;;;;;;4944897;28;20780;-76
2021/04/23 09:43:16;;;;;;;1.10;0.90;;;19.30;77.10;;;;;;4941249;28;20046;-77
2021/04/23 09:45:51;;;;;;;1.05;0.70;;;19.10;77.50;;;;;;4943914;28;20044;-77
2021/04/23 09:48:24;;;;;;;1.10;0.80;;;19.20;77.80;;;;;;4940068;28;20484;-76
2021/04/23 09:50:56;;;;;;;2.67;1.27;;;19.60;77.30;;;;;;4950316;28;20043;-76
2021/04/23 09:53:29;;;;;;;2.35;0.85;;;19.80;77.30;;;;;;4940432;28;20043;-77
2021/04/23 09:55:57;;;;;;;2.33;0.90;;;19.80;75.70;;;;;;4943519;28;20047;-76
2021/04/23 09:58:25;;;;;;;1.58;0.82;;;19.90;76.50;;;;;;4962276;28;20123;-77
2021/04/23 10:00:58;;;;;;;1.38;0.75;;;20.00;76.30;;;;;;4954827;28;20042;-77
2021/04/23 10:03:33;;;;;;;2.33;0.82;;;20.20;76.50;;;;;;4970423;28;20042;-77
2021/04/23 10:06:19;;;;;;;1.73;0.90;;;20.10;75.50;;;;;;4940868;28;20054;-77
2021/04/23 10:08:48;;;;;;;1.88;0.82;;;19.90;75.60;;;;;;4957742;28;20050;-77
2021/04/23 10:11:15;;;;;;;2.35;0.90;;;19.80;75.40;;;;;;4941576;28;20047;-77
2021/04/23 10:13:43;;;;;;;1.05;0.68;;;19.70;75.80;;;;;;4961190;28;20043;-77
2021/04/23 10:16:15;;;;;;;1.17;0.90;;;19.80;76.40;;;;;;4959215;28;20146;-76
2021/04/23 10:18:42;;;;;;;1.38;0.80;;;19.80;76.60;;;;;;4970316;28;20047;-77
2021/04/23 10:21:10;;;;;;;1.77;0.93;;;20.20;75.80;;;;;;4960742;28;20039;-78
2021/04/23 10:23:40;;;;;;;0.85;0.80;;;20.10;76.00;;;;;;4943911;28;20047;-78
2021/04/23 10:26:07;;;;;;;0.75;0.70;;;20.20;76.10;;;;;;4955713;28;20054;-78
2021/04/23 10:28:36;;;;;;;1.38;0.90;;;20.20;75.30;;;;;;4961225;28;20517;-77
2021/04/23 10:31:04;;;;;;;1.13;0.90;;;20.20;76.20;;;;;;4963921;28;20042;-78
2021/04/23 10:33:33;;;;;;;2.47;0.82;;;20.40;74.80;;;;;;4970524;28;20062;-78
2021/04/23 10:36:01;;;;;;;2.80;1.08;;;20.80;74.50;;;;;;4961555;28;20042;-77
2021/04/23 10:38:34;;;;;;;1.25;0.95;;;20.80;74.00;;;;;;4965723;28;20531;-78
2021/04/23 10:41:06;;;;;;;1.73;1.05;;;21.00;73.50;;;;;;4965493;28;20055;-78
2021/04/23 10:43:35;;;;;;;0.80;0.77;;;21.30;73.30;;;;;;4959486;28;20051;-77
2021/04/23 10:46:09;;;;;;;0.80;0.80;;;21.40;72.40;;;;;;4963446;28;20043;-77
2021/04/23 10:48:39;;;;;;;1.20;0.70;;;21.40;73.30;;;;;;4967663;28;20074;-78
2021/04/23 10:51:11;;;;;;;2.22;0.90;;;21.30;73.00;;;;;;4966931;28;20038;-77
2021/04/23 10:53:43;;;;;;;1.70;0.90;;;21.30;73.60;;;;;;4949844;28;20082;-76
2021/04/23 10:56:36;;;;;;;1.40;0.90;;;21.50;72.90;;;;;;4965961;28;20153;-76
2021/04/23 10:59:05;;;;;;;0.80;0.73;;;21.30;73.10;;;;;;4963250;28;20399;-77
2021/04/23 11:01:36;;;;;;;0.95;0.82;;;21.00;73.10;;;;;;4964251;28;20493;-76
2021/04/23 11:04:12;;;;;;;0.80;0.70;;;21.00;73.70;;;;;;4965965;28;20042;-76
2021/04/23 11:06:43;;;;;;;1.52;0.73;;;21.10;73.10;;;;;;4980807;28;20039;-77
2021/04/23 11:09:15;;;;;;;1.88;0.70;;;21.10;73.30;;;;;;4965920;28;20517;-76
2021/04/23 11:12:04;;;;;;;1.25;0.90;;;21.10;73.80;;;;;;4973488;28;20378;-77
2021/04/23 11:14:33;;;;;;;2.83;0.77;;;21.10;73.60;;;;;;4963608;28;20555;-79
2021/04/23 11:17:28;;;;;;;1.67;0.95;;;21.10;73.00;;;;;;4972233;28;20048;-78
2021/04/23 11:19:56;;;;;;;1.20;0.60;;;21.20;73.40;;;;;;4966114;28;20061;-77
2021/04/23 11:22:25;;;;;;;2.05;0.70;;;21.40;73.50;;;;;;4960680;28;20242;-78
2021/04/23 11:25:12;;;;;;;1.13;0.70;;;21.50;73.70;;;;;;4962596;28;20069;-78
2021/04/23 11:28:19;;;;;;;1.10;0.90;;;21.50;73.10;;;;;;4965013;28;20606;-78
2021/04/23 11:31:06;;;;;;;1.05;0.70;;;21.70;73.40;;;;;;4950087;28;20142;-77
2021/04/23 11:34:00;;;;;;;2.08;0.90;;;22.10;72.80;;;;;;4964546;28;20523;-77
2021/04/23 11:36:35;;;;;;;3.03;1.23;;;22.40;71.50;;;;;;4938994;28;20047;-78
2021/04/23 11:39:09;;;;;;;1.65;0.90;;;22.60;71.40;;;;;;4962157;28;20599;-77
2021/04/23 11:41:38;;;;;;;1.42;1.00;;;22.30;71.40;;;;;;4964153;28;20078;-79
2021/04/23 11:44:41;;;;;;;2.70;1.20;;;22.10;72.60;;;;;;4930176;28;20142;-79
2021/04/23 11:47:11;;;;;;;1.98;1.30;;;22.20;72.50;;;;;;4962852;28;20041;-78
2021/04/23 11:49:39;;;;;;;2.22;1.05;;;22.30;72.10;;;;;;4963162;28;20038;-79
2021/04/23 11:52:07;;;;;;;2.55;0.98;;;22.10;72.20;;;;;;4965641;28;20433;-80
2021/04/23 11:54:37;;;;;;;1.45;0.90;;;22.10;73.30;;;;;;4963865;28;20043;-79
2021/04/23 11:57:07;;;;;;;1.30;0.80;;;22.00;72.30;;;;;;4954456;28;20050;-78
2021/04/23 11:59:56;;;;;;;2.58;1.25;;;21.90;72.50;;;;;;4964119;28;20050;-80
2021/04/23 12:02:46;;;;;;;2.08;1.05;;;21.90;72.20;;;;;;4948549;28;20372;-79
2021/04/23 12:05:26;;;;;;;1.77;0.80;;;21.90;72.50;;;;;;4947988;28;20048;-78
2021/04/23 12:07:56;;;;;;;2.20;1.00;;;22.20;71.70;;;;;;4974359;28;20065;-79
2021/04/23 12:10:25;;;;;;;3.78;1.27;;;22.40;71.40;;;;;;4961901;28;20034;-80
2021/04/23 12:12:53;;;;;;;2.30;0.90;;;22.60;71.70;;;;;;4962555;28;20047;-80
2021/04/23 12:15:32;;;;;;;2.35;0.93;;;22.50;71.00;;;;;;4962551;28;20046;-80
2021/04/23 12:18:04;;;;;;;2.55;1.00;;;22.40;71.50;;;;;;4965422;28;20045;-80
2021/04/23 12:20:37;;;;;;;1.23;0.90;;;22.50;71.30;;;;;;4956798;28;20054;-79
2021/04/23 12:23:07;;;;;;;2.15;0.63;;;22.60;71.10;;;;;;4961637;28;20050;-77
2021/04/23 12:25:38;;;;;;;1.10;0.90;;;22.60;71.60;;;;;;4960438;28;20134;-77
2021/04/23 12:28:34;;;;;;;1.40;1.02;;;22.60;71.10;;;;;;4964162;28;20421;-77
2021/04/23 12:31:07;;;;;;;1.27;0.77;;;22.70;71.20;;;;;;4933208;28;20607;-77
2021/04/23 12:33:45;;;;;;;2.47;0.80;;;22.50;71.10;;;;;;4964837;28;20046;-77
2021/04/23 12:36:20;;;;;;;2.22;0.77;;;22.70;70.60;;;;;;4968265;28;20046;-77
2021/04/23 12:38:50;;;;;;;2.05;1.05;;;22.80;70.50;;;;;;4967247;28;20081;-77
2021/04/23 12:41:22;;;;;;;0.70;0.70;;;22.70;69.90;;;;;;4970796;28;20524;-77
2021/04/23 12:43:51;;;;;;;1.92;0.93;;;22.70;69.90;;;;;;4957312;28;20050;-77
2021/04/23 12:46:29;;;;;;;2.90;0.82;;;22.70;68.80;;;;;;4962258;28;20129;-77
2021/04/23 12:49:02;;;;;;;;;;;22.80;68.40;;;;;;4962207;28;20483;-79
2021/04/23 12:51:38;;;;;;;1.58;0.70;;;23.00;69.20;;;;;;4969355;28;19940;-78
2021/04/23 12:54:07;;;;;;;1.30;0.63;;;23.10;68.50;;;;;;4934279;28;20054;-79
2021/04/23 12:56:35;;;;;;;1.85;0.82;;;23.10;68.70;;;;;;4961242;28;20047;-79
2021/04/23 12:59:06;;;;;;;1.77;0.90;;;23.10;68.80;;;;;;4965090;28;20051;-79
2021/04/23 13:01:34;;;;;;;2.72;0.70;;;23.20;68.20;;;;;;4965694;28;20054;-79
2021/04/23 13:04:09;;;;;;;0.82;0.60;;;23.40;67.40;;;;;;4962963;28;20046;-78
2021/04/23 13:06:37;;;;;;;1.90;0.70;;;23.40;67.70;;;;;;4964343;28;20745;-78
2021/04/23 13:09:07;;;;;;;0.60;0.50;;;23.40;67.40;;;;;;4962465;28;20595;-78
2021/04/23 13:11:36;;;;;;;0.77;0.70;;;23.60;66.60;;;;;;4961683;28;20078;-78